createdAt,value
2023-02-15T00:01:58.677Z,2.32
2023-02-15T00:04:02.876Z,2.34
2023-02-15T00:06:05.663Z,2.35
2023-02-15T00:08:08.195Z,2.37
2023-02-15T00:10:12.938Z,2.39
2023-02-15T00:12:16.846Z,2.32
2023-02-15T00:14:21.640Z,2.31
2023-02-15T00:16:24.246Z,2.24
2023-02-15T00:18:26.841Z,2.17
2023-02-15T00:20:30.751Z,2.14
2023-02-15T00:22:33.288Z,2.13
2023-02-15T00:24:35.858Z,2.14
2023-02-15T00:26:40.099Z,2.13
2023-02-15T00:28:42.624Z,2.10
2023-02-15T00:30:45.200Z,2.09
2023-02-15T00:32:49.630Z,2.10
2023-02-15T00:34:52.390Z,2.05
2023-02-15T00:36:56.572Z,2.01
2023-02-15T00:38:59.217Z,1.99
2023-02-15T00:41:03.749Z,1.97
2023-02-15T00:43:06.338Z,1.99
2023-02-15T00:45:10.045Z,2.02
2023-02-15T00:47:12.615Z,2.03
2023-02-15T00:49:15.183Z,2.06
2023-02-15T00:51:18.298Z,2.02
2023-02-15T00:53:23.142Z,1.98
2023-02-15T00:55:25.699Z,2.00
2023-02-15T00:57:28.248Z,1.96
2023-02-15T00:59:30.795Z,1.96
2023-02-15T01:01:33.467Z,1.85
2023-02-15T01:03:36.232Z,1.82
2023-02-15T01:05:39.054Z,1.76
2023-02-15T01:07:41.673Z,1.77
2023-02-15T01:09:45.577Z,1.74
2023-02-15T01:11:48.122Z,1.75
2023-02-15T01:13:51.551Z,1.73
2023-02-15T01:15:56.396Z,1.74
2023-02-15T01:17:59.092Z,1.74
2023-02-15T01:20:01.660Z,1.71
2023-02-15T01:22:04.484Z,1.70
2023-02-15T01:24:07.431Z,1.67
2023-02-15T01:26:12.142Z,1.66
2023-02-15T01:28:14.723Z,1.70
2023-02-15T01:30:20.609Z,1.64
2023-02-15T01:32:23.354Z,1.61
2023-02-15T01:34:26.024Z,1.60
2023-02-15T01:36:28.686Z,1.60
2023-02-15T01:38:31.286Z,1.61
2023-02-15T01:40:33.815Z,1.59
2023-02-15T01:42:37.864Z,1.61
2023-02-15T01:44:52.575Z,1.63
2023-02-15T01:46:55.641Z,1.66
2023-02-15T01:49:03.424Z,1.64
2023-02-15T01:51:06.001Z,1.65
2023-02-15T01:53:15.251Z,1.63
2023-02-15T01:55:18.173Z,1.63
2023-02-15T01:57:25.861Z,1.61
2023-02-15T01:59:30.372Z,1.57
2023-02-15T02:01:33.037Z,1.55
2023-02-15T02:03:44.077Z,1.53
2023-02-15T02:05:46.639Z,1.52
2023-02-15T02:07:52.254Z,1.50
2023-02-15T02:09:54.804Z,1.51
2023-02-15T02:11:57.540Z,1.50
2023-02-15T02:14:00.317Z,1.53
2023-02-15T02:16:12.857Z,1.50
2023-02-15T02:18:27.458Z,1.50
2023-02-15T02:21:02.699Z,1.49
2023-02-15T02:23:25.990Z,1.47
2023-02-15T02:25:48.329Z,1.48
2023-02-15T02:27:58.575Z,1.50
2023-02-15T02:31:02.166Z,1.50
2023-02-15T02:33:27.227Z,1.52
2023-02-15T02:35:35.897Z,1.54
2023-02-15T02:38:03.000Z,1.54
2023-02-15T02:40:13.559Z,1.52
2023-02-15T02:42:24.106Z,1.52
2023-02-15T02:44:31.423Z,1.48
2023-02-15T02:46:38.945Z,1.50
2023-02-15T02:48:43.174Z,1.47
2023-02-15T02:50:45.729Z,1.46
2023-02-15T02:52:50.569Z,1.40
2023-02-15T02:54:53.204Z,1.36
2023-02-15T02:56:58.381Z,1.35
2023-02-15T02:59:07.632Z,1.31
2023-02-15T03:01:16.660Z,1.33
2023-02-15T03:03:25.427Z,1.25
2023-02-15T03:05:31.708Z,1.24
2023-02-15T03:07:37.655Z,1.16
2023-02-15T03:09:43.542Z,1.10
2023-02-15T03:11:47.151Z,1.09
2023-02-15T03:13:50.979Z,1.04
2023-02-15T03:16:14.764Z,1.02
2023-02-15T03:18:19.926Z,1.03
2023-02-15T03:20:26.408Z,1.02
2023-02-15T03:22:36.682Z,1.01
2023-02-15T03:24:43.611Z,0.96
2023-02-15T03:26:49.649Z,0.99
2023-02-15T03:28:54.775Z,0.95
2023-02-15T03:31:02.164Z,1.00
2023-02-15T03:33:06.512Z,1.02
2023-02-15T03:35:09.757Z,1.04
2023-02-15T03:37:17.776Z,1.06
2023-02-15T03:39:24.662Z,1.06
2023-02-15T03:41:28.741Z,1.05
2023-02-15T03:43:39.988Z,1.07
2023-02-15T03:45:55.821Z,1.05
2023-02-15T03:48:01.371Z,1.06
2023-02-15T03:50:28.528Z,1.07
2023-02-15T03:52:33.055Z,1.08
2023-02-15T03:54:44.277Z,1.09
2023-02-15T03:57:06.993Z,1.10
2023-02-15T03:59:27.363Z,1.09
2023-02-15T04:01:54.505Z,1.11
2023-02-15T04:04:02.166Z,1.14
2023-02-15T04:06:05.271Z,1.12
2023-02-15T04:08:08.298Z,1.10
2023-02-15T04:10:29.822Z,1.10
2023-02-15T04:12:32.761Z,1.05
2023-02-15T04:14:53.340Z,1.02
2023-02-15T04:16:55.967Z,1.01
2023-02-15T04:19:16.067Z,1.00
2023-02-15T04:21:36.463Z,0.99
2023-02-15T04:23:56.420Z,0.98
2023-02-15T04:26:00.751Z,0.92
2023-02-15T04:28:03.498Z,0.92
2023-02-15T04:30:07.624Z,0.89
2023-02-15T04:32:10.294Z,0.89
2023-02-15T04:34:12.862Z,0.87
2023-02-15T04:36:15.390Z,0.88
2023-02-15T04:38:17.985Z,0.86
2023-02-15T04:40:20.737Z,0.81
2023-02-15T04:42:24.659Z,0.80
2023-02-15T04:44:27.196Z,0.75
2023-02-15T04:46:30.357Z,0.75
2023-02-15T04:48:33.759Z,0.73
2023-02-15T04:50:36.282Z,0.73
2023-02-15T04:52:39.117Z,0.75
2023-02-15T04:54:41.786Z,0.74
2023-02-15T04:56:44.489Z,0.74
2023-02-15T04:58:48.695Z,0.75
2023-02-15T05:00:51.304Z,0.73
2023-02-15T05:02:53.866Z,0.73
2023-02-15T05:04:56.441Z,0.77
2023-02-15T05:06:59.010Z,0.78
2023-02-15T05:09:01.550Z,0.78
2023-02-15T05:11:04.224Z,0.79
2023-02-15T05:13:06.797Z,0.74
2023-02-15T05:15:11.182Z,0.71
2023-02-15T05:17:13.728Z,0.69
2023-02-15T05:19:16.403Z,0.68
2023-02-15T05:21:19.029Z,0.68
2023-02-15T05:23:21.606Z,0.71
2023-02-15T05:25:41.941Z,0.70
2023-02-15T05:28:03.831Z,0.73
2023-02-15T05:30:12.460Z,0.71
2023-02-15T05:32:18.924Z,0.73
2023-02-15T05:34:21.528Z,0.74
2023-02-15T05:36:24.074Z,0.74
2023-02-15T05:38:26.797Z,0.71
2023-02-15T05:40:29.378Z,0.66
2023-02-15T05:42:31.946Z,0.68
2023-02-15T05:44:34.528Z,0.67
2023-02-15T05:46:37.130Z,0.68
2023-02-15T05:48:41.092Z,0.67
2023-02-15T05:50:43.730Z,0.65
2023-02-15T05:52:46.332Z,0.62
2023-02-15T05:54:48.948Z,0.64
2023-02-15T05:56:51.478Z,0.62
2023-02-15T05:58:57.033Z,0.65
2023-02-15T06:00:59.665Z,0.66
2023-02-15T06:03:02.203Z,0.69
2023-02-15T06:05:07.388Z,0.68
2023-02-15T06:07:09.942Z,0.63
2023-02-15T06:09:12.942Z,0.62
2023-02-15T06:11:15.526Z,0.54
2023-02-15T06:13:18.101Z,0.50
2023-02-15T06:15:20.915Z,0.57
2023-02-15T06:17:23.497Z,0.46
2023-02-15T06:19:26.155Z,0.43
2023-02-15T06:21:30.424Z,0.41
2023-02-15T06:23:33.118Z,0.35
2023-02-15T06:25:36.634Z,0.37
2023-02-15T06:27:43.214Z,0.39
2023-02-15T06:29:45.814Z,0.38
2023-02-15T06:31:50.808Z,0.43
2023-02-15T06:33:53.510Z,0.34
2023-02-15T06:35:56.057Z,0.31
2023-02-15T06:37:59.959Z,0.31
2023-02-15T06:40:03.976Z,0.33
2023-02-15T06:42:06.718Z,0.32
2023-02-15T06:44:09.548Z,0.37
2023-02-15T06:46:12.152Z,0.37
2023-02-15T06:48:15.107Z,0.37
2023-02-15T06:50:18.008Z,0.40
2023-02-15T06:52:20.578Z,0.42
2023-02-15T06:54:24.533Z,0.42
2023-02-15T06:56:27.140Z,0.44
2023-02-15T06:58:29.708Z,0.44
2023-02-15T07:00:32.372Z,0.41
2023-02-15T07:02:35.199Z,0.39
2023-02-15T07:04:37.834Z,0.35
2023-02-15T07:06:41.636Z,0.33
2023-02-15T07:08:44.161Z,0.32
2023-02-15T07:10:48.034Z,0.33
2023-02-15T07:12:49.627Z,0.35
2023-02-15T07:14:52.148Z,0.35
2023-02-15T07:16:54.704Z,0.35
2023-02-15T07:18:57.290Z,0.42
2023-02-15T07:20:59.857Z,0.40
2023-02-15T07:23:02.442Z,0.42
2023-02-15T07:25:05.467Z,0.43
2023-02-15T07:27:09.807Z,0.47
2023-02-15T07:29:12.363Z,0.51
2023-02-15T07:31:14.940Z,0.54
2023-02-15T07:33:27.962Z,0.61
2023-02-15T07:35:30.559Z,0.64
2023-02-15T07:37:33.111Z,0.67
2023-02-15T07:39:35.656Z,0.70
2023-02-15T07:41:38.489Z,0.75
2023-02-15T07:43:44.363Z,0.80
2023-02-15T07:45:46.944Z,0.83
2023-02-15T07:47:49.537Z,0.90
2023-02-15T07:49:52.141Z,0.92
2023-02-15T07:51:54.719Z,0.93
2023-02-15T07:53:57.331Z,0.99
2023-02-15T07:56:01.102Z,1.04
2023-02-15T07:58:03.918Z,1.09
2023-02-15T08:00:09.337Z,1.12
2023-02-15T08:02:12.646Z,1.18
2023-02-15T08:04:15.243Z,1.22
2023-02-15T08:06:18.638Z,1.27
2023-02-15T08:08:31.481Z,1.31
2023-02-15T08:10:47.998Z,1.34
2023-02-15T08:12:50.558Z,1.40
2023-02-15T08:14:53.150Z,1.45
2023-02-15T08:16:57.857Z,1.48
2023-02-15T08:19:02.382Z,1.52
2023-02-15T08:21:05.801Z,1.61
2023-02-15T08:23:08.355Z,1.62
2023-02-15T08:25:10.922Z,1.63
2023-02-15T08:27:13.604Z,1.67
2023-02-15T08:29:17.236Z,1.84
2023-02-15T08:31:20.203Z,1.93
2023-02-15T08:33:24.203Z,1.86
2023-02-15T08:35:26.738Z,1.94
2023-02-15T08:37:29.256Z,1.85
2023-02-15T08:39:31.942Z,1.87
2023-02-15T08:41:36.896Z,1.87
2023-02-15T08:43:39.828Z,1.91
2023-02-15T08:45:43.401Z,1.93
2023-02-15T08:47:48.139Z,1.98
2023-02-15T08:49:52.313Z,2.05
2023-02-15T08:51:54.926Z,2.08
2023-02-15T08:53:59.206Z,2.16
2023-02-15T08:56:01.981Z,2.15
2023-02-15T08:58:04.555Z,2.19
2023-02-15T09:00:08.557Z,2.21
2023-02-15T09:02:12.139Z,2.25
2023-02-15T09:04:16.617Z,2.27
2023-02-15T09:06:21.391Z,2.46
2023-02-15T09:08:23.938Z,2.42
2023-02-15T09:10:26.527Z,2.38
2023-02-15T09:12:29.114Z,2.38
2023-02-15T09:14:31.711Z,2.39
2023-02-15T09:16:36.957Z,2.39
2023-02-15T09:18:40.842Z,2.41
2023-02-15T09:20:43.364Z,2.43
2023-02-15T09:22:47.276Z,2.45
2023-02-15T09:24:49.817Z,2.47
2023-02-15T09:26:52.385Z,2.51
2023-02-15T09:28:57.381Z,2.54
2023-02-15T09:31:07.059Z,2.59
2023-02-15T09:33:09.603Z,2.61
2023-02-15T09:35:13.517Z,2.62
2023-02-15T09:37:16.261Z,2.65
2023-02-15T09:39:22.110Z,2.68
2023-02-15T09:42:17.000Z,2.72
2023-02-15T09:44:29.921Z,2.78
2023-02-15T09:46:51.074Z,2.78
2023-02-15T09:49:00.751Z,2.83
2023-02-15T09:51:22.542Z,2.87
2023-02-15T09:53:37.874Z,2.90
2023-02-15T09:55:53.215Z,2.94
2023-02-15T09:58:07.489Z,2.97
2023-02-15T10:00:18.471Z,3.01
2023-02-15T10:02:36.866Z,3.02
2023-02-15T10:04:56.473Z,3.12
2023-02-15T10:07:10.486Z,3.16
2023-02-15T10:09:35.026Z,3.19
2023-02-15T10:11:54.441Z,3.26
2023-02-15T10:14:11.231Z,3.31
2023-02-15T10:16:26.909Z,3.33
2023-02-15T10:18:45.686Z,3.40
2023-02-15T10:20:58.592Z,3.44
2023-02-15T10:23:24.261Z,3.46
2023-02-15T10:25:34.194Z,3.51
2023-02-15T10:27:43.496Z,3.54
2023-02-15T10:29:55.265Z,3.58
2023-02-15T10:31:59.715Z,3.71
2023-02-15T10:34:17.144Z,3.69
2023-02-15T10:36:34.632Z,3.73
2023-02-15T10:38:44.356Z,3.76
2023-02-15T10:41:00.877Z,3.80
2023-02-15T10:43:22.475Z,3.81
2023-02-15T10:45:33.537Z,3.87
2023-02-15T10:48:08.501Z,3.91
2023-02-15T10:50:27.428Z,3.96
2023-02-15T10:52:44.232Z,4.00
2023-02-15T10:54:55.966Z,4.02
2023-02-15T10:57:07.019Z,4.23
2023-02-15T10:59:25.866Z,4.16
2023-02-15T11:01:36.758Z,4.15
2023-02-15T11:03:58.997Z,4.16
2023-02-15T11:06:06.596Z,4.18
2023-02-15T11:08:12.831Z,4.22
2023-02-15T11:10:27.572Z,4.25
2023-02-15T11:12:33.121Z,4.28
2023-02-15T11:14:42.994Z,4.31
2023-02-15T11:16:48.869Z,4.31
2023-02-15T11:18:57.243Z,4.32
2023-02-15T11:21:04.349Z,4.35
2023-02-15T11:23:17.375Z,4.37
2023-02-15T11:25:24.416Z,4.43
2023-02-15T11:27:31.379Z,4.42
2023-02-15T11:29:39.655Z,4.45
2023-02-15T11:31:46.775Z,4.49
2023-02-15T11:33:54.403Z,4.51
2023-02-15T11:36:02.603Z,4.53
2023-02-15T11:38:14.604Z,4.62
2023-02-15T11:40:23.216Z,4.62
2023-02-15T11:42:27.584Z,4.62
2023-02-15T11:44:34.600Z,4.65
2023-02-15T11:46:39.304Z,4.71
2023-02-15T11:48:43.175Z,4.74
2023-02-15T11:50:46.549Z,4.74
2023-02-15T11:52:49.119Z,4.78
2023-02-15T11:54:54.326Z,4.79
2023-02-15T11:57:02.161Z,4.88
2023-02-15T11:59:12.508Z,4.93
2023-02-15T12:01:22.249Z,4.98
2023-02-15T12:03:31.883Z,5.01
2023-02-15T12:05:38.069Z,5.12
2023-02-15T12:07:46.901Z,5.09
2023-02-15T12:09:54.915Z,5.09
2023-02-15T12:12:25.025Z,5.12
2023-02-15T12:14:27.690Z,5.29
2023-02-15T12:16:33.977Z,5.36
2023-02-15T12:18:40.824Z,5.40
2023-02-15T12:20:44.439Z,5.39
2023-02-15T12:22:50.722Z,5.39
2023-02-15T12:24:56.218Z,5.40
2023-02-15T12:27:01.877Z,5.40
2023-02-15T12:29:14.779Z,5.41
2023-02-15T12:31:24.092Z,5.44
2023-02-15T12:33:32.308Z,5.53
2023-02-15T12:35:38.830Z,5.63
2023-02-15T12:37:54.015Z,5.73
2023-02-15T12:39:58.873Z,5.83
2023-02-15T12:42:05.371Z,5.89
2023-02-15T12:44:17.302Z,5.98
2023-02-15T12:46:24.965Z,6.10
2023-02-15T12:48:27.625Z,6.21
2023-02-15T12:50:35.180Z,6.32
2023-02-15T12:52:40.156Z,6.38
2023-02-15T12:54:44.859Z,6.46
2023-02-15T12:56:47.587Z,6.52
2023-02-15T12:59:01.648Z,6.59
2023-02-15T13:01:11.879Z,6.66
2023-02-15T13:03:19.909Z,6.72
2023-02-15T13:05:28.486Z,6.88
2023-02-15T13:07:33.864Z,7.10
2023-02-15T13:09:40.532Z,7.39
2023-02-15T13:11:45.199Z,7.63
2023-02-15T13:13:53.876Z,7.90
2023-02-15T13:16:00.153Z,8.28
2023-02-15T13:18:04.475Z,8.60
2023-02-15T13:20:18.775Z,8.70
2023-02-15T13:22:25.653Z,8.79
2023-02-15T13:24:31.681Z,9.02
2023-02-15T13:26:37.269Z,9.42
2023-02-15T13:28:44.930Z,10.01
2023-02-15T13:30:49.705Z,10.49
2023-02-15T13:32:56.571Z,10.67
2023-02-15T13:35:00.931Z,10.68
2023-02-15T13:37:10.188Z,10.60
2023-02-15T13:39:25.387Z,10.41
2023-02-15T13:41:36.280Z,10.22
2023-02-15T13:43:53.249Z,10.03
2023-02-15T13:46:09.959Z,9.83
2023-02-15T13:48:21.883Z,9.71
2023-02-15T13:50:41.974Z,9.57
2023-02-15T13:52:49.758Z,9.52
2023-02-15T13:55:23.085Z,9.43
2023-02-15T13:57:46.803Z,9.40
2023-02-15T14:00:02.930Z,9.33
2023-02-15T14:02:32.267Z,9.26
2023-02-15T14:04:55.239Z,9.26
2023-02-15T14:07:18.635Z,9.31
2023-02-15T14:09:32.968Z,9.38
2023-02-15T14:11:43.921Z,9.43
2023-02-15T14:14:33.944Z,9.49
2023-02-15T14:17:04.344Z,9.63
2023-02-15T14:19:22.025Z,9.78
2023-02-15T14:21:32.529Z,9.98
2023-02-15T14:23:45.833Z,10.11
2023-02-15T14:25:56.511Z,10.25
2023-02-15T14:28:08.808Z,10.35
2023-02-15T14:30:19.883Z,10.48
2023-02-15T14:32:30.065Z,10.54
2023-02-15T14:34:44.084Z,10.65
2023-02-15T14:36:46.827Z,10.70
2023-02-15T14:38:58.556Z,10.81
2023-02-15T14:41:08.125Z,10.86
2023-02-15T14:43:17.533Z,10.90
2023-02-15T14:45:24.881Z,10.97
2023-02-15T14:47:33.999Z,10.99
2023-02-15T14:49:39.953Z,11.05
2023-02-15T14:52:02.750Z,11.06
2023-02-15T14:54:05.326Z,11.09
2023-02-15T14:56:18.434Z,11.15
2023-02-15T14:58:21.036Z,11.20
2023-02-15T15:00:41.791Z,11.19
2023-02-15T15:02:49.852Z,11.21
2023-02-15T15:05:04.094Z,11.17
2023-02-15T15:07:18.116Z,11.12
2023-02-15T15:09:24.503Z,11.07
2023-02-15T15:11:54.796Z,10.94
2023-02-15T15:13:58.886Z,10.87
2023-02-15T15:16:29.730Z,10.75
2023-02-15T15:18:48.367Z,10.69
2023-02-15T15:20:52.107Z,10.65
2023-02-15T15:23:40.798Z,10.55
2023-02-15T15:25:46.386Z,10.50
2023-02-15T15:27:54.887Z,10.44
2023-02-15T15:29:57.526Z,10.38
2023-02-15T15:32:03.321Z,10.34
2023-02-15T15:34:31.716Z,10.29
2023-02-15T15:37:05.845Z,10.27
2023-02-15T15:39:23.846Z,10.25
2023-02-15T15:41:42.913Z,10.23
2023-02-15T15:44:33.144Z,10.18
2023-02-15T15:47:03.269Z,10.10
2023-02-15T15:49:10.624Z,10.03
2023-02-15T15:51:19.732Z,9.93
2023-02-15T15:53:25.107Z,9.86
2023-02-15T15:55:32.371Z,9.78
2023-02-15T15:57:37.971Z,9.72
2023-02-15T15:59:47.037Z,9.65
2023-02-15T16:01:50.899Z,9.57
2023-02-15T16:03:55.562Z,9.52
2023-02-15T16:06:01.523Z,9.44
2023-02-15T16:08:07.276Z,9.40
2023-02-15T16:10:23.172Z,9.34
2023-02-15T16:12:27.762Z,9.29
2023-02-15T16:14:32.878Z,9.25
2023-02-15T16:16:35.685Z,9.21
2023-02-15T16:18:43.228Z,9.16
2023-02-15T16:20:53.914Z,9.12
2023-02-15T16:23:11.570Z,9.08
2023-02-15T16:25:33.323Z,9.01
2023-02-15T16:27:38.371Z,8.97
2023-02-15T16:29:40.948Z,8.95
2023-02-15T16:31:43.665Z,8.90
2023-02-15T16:33:47.401Z,8.87
2023-02-15T16:35:56.543Z,8.84
2023-02-15T16:37:59.142Z,8.80
2023-02-15T16:40:03.440Z,8.76
2023-02-15T16:42:06.418Z,8.73
2023-02-15T16:44:18.129Z,8.69
2023-02-15T16:46:26.526Z,8.66
2023-02-15T16:48:29.657Z,8.63
2023-02-15T16:50:35.457Z,8.59
2023-02-15T16:52:38.022Z,8.56
2023-02-15T16:54:44.553Z,8.54
2023-02-15T16:56:48.902Z,8.51
2023-02-15T16:58:54.598Z,8.48
2023-02-15T17:00:59.692Z,8.46
2023-02-15T17:03:05.926Z,8.48
2023-02-15T17:05:18.447Z,8.51
2023-02-15T17:07:22.561Z,8.46
2023-02-15T17:09:26.354Z,8.40
2023-02-15T17:11:37.336Z,8.37
2023-02-15T17:13:41.683Z,8.36
2023-02-15T17:15:46.480Z,8.36
2023-02-15T17:17:49.965Z,8.45
2023-02-15T17:19:56.093Z,8.35
2023-02-15T17:22:02.326Z,8.27
2023-02-15T17:24:06.118Z,8.26
2023-02-15T17:26:17.084Z,8.41
2023-02-15T17:28:21.716Z,8.34
2023-02-15T17:30:31.408Z,8.24
2023-02-15T17:32:36.999Z,8.18
2023-02-15T17:34:46.460Z,8.09
2023-02-15T17:37:00.249Z,8.00
2023-02-15T17:39:19.774Z,7.97
2023-02-15T17:41:22.387Z,7.96
2023-02-15T17:43:24.936Z,7.93
2023-02-15T17:45:35.049Z,7.85
2023-02-15T17:47:37.676Z,7.82
2023-02-15T17:49:40.325Z,7.79
2023-02-15T17:51:45.717Z,7.74
2023-02-15T17:54:03.372Z,7.70
2023-02-15T17:56:10.802Z,7.84
2023-02-15T17:58:14.917Z,7.78
2023-02-15T18:00:35.982Z,7.83
2023-02-15T18:02:58.081Z,7.78
2023-02-15T18:05:18.293Z,7.83
2023-02-15T18:07:38.721Z,7.67
2023-02-15T18:09:58.879Z,7.59
2023-02-15T18:12:02.007Z,7.51
2023-02-15T18:14:05.248Z,7.44
2023-02-15T18:16:14.449Z,7.40
2023-02-15T18:18:18.351Z,7.36
2023-02-15T18:20:24.292Z,7.30
2023-02-15T18:22:30.592Z,7.21
2023-02-15T18:24:33.332Z,7.13
2023-02-15T18:26:35.926Z,7.08
2023-02-15T18:28:38.460Z,7.02
2023-02-15T18:30:42.534Z,6.98
2023-02-15T18:32:46.706Z,6.97
2023-02-15T18:34:52.178Z,6.86
2023-02-15T18:36:55.544Z,6.77
2023-02-15T18:38:58.288Z,6.85
2023-02-15T18:41:03.451Z,6.84
2023-02-15T18:43:06.311Z,6.86
2023-02-15T18:45:16.814Z,6.76
2023-02-15T18:47:19.493Z,6.59
2023-02-15T18:49:22.110Z,6.47
2023-02-15T18:51:26.012Z,6.41
2023-02-15T18:53:28.628Z,6.42
2023-02-15T18:55:32.461Z,6.41
2023-02-15T18:57:35.200Z,6.44
2023-02-15T18:59:37.751Z,6.44
2023-02-15T19:01:40.301Z,6.52
2023-02-15T19:03:42.873Z,6.38
2023-02-15T19:05:47.687Z,6.41
2023-02-15T19:07:52.451Z,6.44
2023-02-15T19:09:57.491Z,6.26
2023-02-15T19:12:00.415Z,6.28
2023-02-15T19:14:03.019Z,6.22
2023-02-15T19:16:06.455Z,6.15
2023-02-15T19:18:09.035Z,6.13
2023-02-15T19:20:17.446Z,6.07
2023-02-15T19:22:26.149Z,6.01
2023-02-15T19:24:38.137Z,6.04
2023-02-15T19:26:45.947Z,6.05
2023-02-15T19:28:48.790Z,6.02
2023-02-15T19:30:51.380Z,5.97
2023-02-15T19:32:54.017Z,5.99
2023-02-15T19:34:56.561Z,5.91
2023-02-15T19:36:59.205Z,5.87
2023-02-15T19:39:01.791Z,5.86
2023-02-15T19:41:10.141Z,5.86
2023-02-15T19:43:17.512Z,5.90
2023-02-15T19:45:22.618Z,5.98
2023-02-15T19:47:27.049Z,5.98
2023-02-15T19:49:29.844Z,5.96
2023-02-15T19:51:34.017Z,5.98
2023-02-15T19:53:39.520Z,5.95
2023-02-15T19:55:42.115Z,5.90
2023-02-15T19:57:46.020Z,5.91
2023-02-15T19:59:49.301Z,5.90
2023-02-15T20:01:52.342Z,5.84
2023-02-15T20:03:55.574Z,5.79
2023-02-15T20:05:58.101Z,5.74
2023-02-15T20:08:03.958Z,5.70
2023-02-15T20:10:15.893Z,5.68
2023-02-15T20:12:22.302Z,5.65
2023-02-15T20:14:26.348Z,5.69
2023-02-15T20:16:29.705Z,5.65
2023-02-15T20:18:32.352Z,5.67
2023-02-15T20:20:40.518Z,5.64
2023-02-15T20:22:45.102Z,5.62
2023-02-15T20:24:47.647Z,5.55
2023-02-15T20:26:50.460Z,5.48
2023-02-15T20:28:53.041Z,5.45
2023-02-15T20:30:58.207Z,5.46
2023-02-15T20:33:00.786Z,5.39
2023-02-15T20:35:03.886Z,5.40
2023-02-15T20:37:07.149Z,5.35
2023-02-15T20:39:16.270Z,5.30
2023-02-15T20:41:43.024Z,5.25
2023-02-15T20:43:45.603Z,5.20
2023-02-15T20:45:48.143Z,5.16
2023-02-15T20:47:53.637Z,5.10
2023-02-15T20:49:57.441Z,5.08
2023-02-15T20:52:19.201Z,5.08
2023-02-15T20:54:24.115Z,5.05
2023-02-15T20:56:26.676Z,5.07
2023-02-15T20:58:30.820Z,5.05
2023-02-15T21:00:33.647Z,5.02
2023-02-15T21:02:39.290Z,5.04
2023-02-15T21:04:43.308Z,5.11
2023-02-15T21:06:45.998Z,5.14
2023-02-15T21:08:48.585Z,5.10
2023-02-15T21:10:52.949Z,4.98
2023-02-15T21:12:57.063Z,4.92
2023-02-15T21:14:59.665Z,4.84
2023-02-15T21:17:02.252Z,4.77
2023-02-15T21:19:13.469Z,4.76
2023-02-15T21:21:23.459Z,4.73
2023-02-15T21:23:30.209Z,4.72
2023-02-15T21:25:35.471Z,4.71
2023-02-15T21:27:38.032Z,4.71
2023-02-15T21:29:40.584Z,4.69
2023-02-15T21:31:43.257Z,4.69
2023-02-15T21:33:45.971Z,4.69
2023-02-15T21:35:51.438Z,4.65
2023-02-15T21:37:55.507Z,4.69
2023-02-15T21:39:58.118Z,4.63
2023-02-15T21:42:18.110Z,4.68
2023-02-15T21:44:39.776Z,4.61
2023-02-15T21:47:00.207Z,4.55
2023-02-15T21:49:02.958Z,4.49
2023-02-15T21:51:37.921Z,4.45
2023-02-15T21:53:45.773Z,4.44
2023-02-15T21:55:48.349Z,4.44
2023-02-15T21:57:50.879Z,4.48
2023-02-15T21:59:53.433Z,4.53
2023-02-15T22:01:56.171Z,4.60
2023-02-15T22:04:00.006Z,4.69
2023-02-15T22:06:03.042Z,4.65
2023-02-15T22:08:12.849Z,4.67
2023-02-15T22:10:17.384Z,4.69
2023-02-15T22:12:21.200Z,4.72
2023-02-15T22:14:37.149Z,4.68
2023-02-15T22:16:42.085Z,4.69
2023-02-15T22:18:45.107Z,4.72
2023-02-15T22:20:48.251Z,4.72
2023-02-15T22:22:52.507Z,4.76
2023-02-15T22:24:55.075Z,4.77
2023-02-15T22:26:59.062Z,4.75
2023-02-15T22:29:01.713Z,4.76
2023-02-15T22:31:05.357Z,4.75
2023-02-15T22:33:23.344Z,4.69
2023-02-15T22:35:28.185Z,4.64
2023-02-15T22:37:30.792Z,4.69
2023-02-15T22:39:33.909Z,4.54
2023-02-15T22:41:36.442Z,4.44
2023-02-15T22:43:42.965Z,4.43
2023-02-15T22:45:45.636Z,4.44
2023-02-15T22:47:50.037Z,4.41
2023-02-15T22:49:53.241Z,4.47
2023-02-15T22:51:55.795Z,4.42
2023-02-15T22:53:58.326Z,4.45
2023-02-15T22:56:06.747Z,4.45
2023-02-15T22:58:17.260Z,4.46
2023-02-15T23:00:23.518Z,4.51
2023-02-15T23:02:29.356Z,4.46
2023-02-15T23:04:31.919Z,4.48
2023-02-15T23:06:37.531Z,4.48
2023-02-15T23:08:40.104Z,4.45
2023-02-15T23:10:44.938Z,4.43
2023-02-15T23:13:02.636Z,4.41
2023-02-15T23:15:07.196Z,4.37
2023-02-15T23:17:11.086Z,4.34
2023-02-15T23:19:16.139Z,4.31
2023-02-15T23:21:22.189Z,4.29
2023-02-15T23:23:31.817Z,4.28
2023-02-15T23:25:34.381Z,4.23
2023-02-15T23:27:54.494Z,4.18
2023-02-15T23:29:57.078Z,4.18
2023-02-15T23:31:59.808Z,4.15
2023-02-15T23:34:13.641Z,4.14
2023-02-15T23:36:26.620Z,4.13
2023-02-15T23:38:31.626Z,4.07
2023-02-15T23:40:51.822Z,4.03
2023-02-15T23:42:54.337Z,4.03
2023-02-15T23:44:57.444Z,4.02
2023-02-15T23:47:00.319Z,4.01
2023-02-15T23:49:14.643Z,4.02
2023-02-15T23:51:18.237Z,3.96
2023-02-15T23:53:20.790Z,3.96
2023-02-15T23:55:24.200Z,3.95
2023-02-15T23:57:26.736Z,3.93
2023-02-15T23:59:31.921Z,3.98
